sensor_id;sensor_type;location;lat;lon;timestamp;P1;durP1;ratioP1;P2;durP2;ratioP2
27666;SDS011;15074;50.940;5.282;2023-06-14T00:01:47;7.82;;;7.03;;
27666;SDS011;15074;50.940;5.282;2023-06-14T00:04:13;8.40;;;7.60;;
27666;SDS011;15074;50.940;5.282;2023-06-14T00:06:41;7.82;;;6.90;;
27666;SDS011;15074;50.940;5.282;2023-06-14T00:09:10;8.63;;;7.82;;
27666;SDS011;15074;50.940;5.282;2023-06-14T00:11:37;7.82;;;6.97;;
27666;SDS011;15074;50.940;5.282;2023-06-14T00:14:04;7.32;;;6.55;;
27666;SDS011;15074;50.940;5.282;2023-06-14T00:16:30;8.10;;;7.40;;
27666;SDS011;15074;50.940;5.282;2023-06-14T00:18:58;7.88;;;7.18;;
27666;SDS011;15074;50.940;5.282;2023-06-14T00:21:24;8.65;;;7.45;;
27666;SDS011;15074;50.940;5.282;2023-06-14T00:23:50;8.10;;;7.47;;
27666;SDS011;15074;50.940;5.282;2023-06-14T00:26:15;8.13;;;7.32;;
27666;SDS011;15074;50.940;5.282;2023-06-14T00:28:41;11.85;;;7.63;;
27666;SDS011;15074;50.940;5.282;2023-06-14T00:31:08;12.55;;;7.90;;
27666;SDS011;15074;50.940;5.282;2023-06-14T00:33:33;7.50;;;6.90;;
27666;SDS011;15074;50.940;5.282;2023-06-14T00:35:59;8.63;;;7.75;;
27666;SDS011;15074;50.940;5.282;2023-06-14T00:38:24;8.18;;;7.57;;
27666;SDS011;15074;50.940;5.282;2023-06-14T00:40:50;8.50;;;7.90;;
27666;SDS011;15074;50.940;5.282;2023-06-14T00:43:16;8.63;;;7.60;;
27666;SDS011;15074;50.940;5.282;2023-06-14T00:45:41;9.52;;;7.20;;
27666;SDS011;15074;50.940;5.282;2023-06-14T00:48:07;10.70;;;7.60;;
27666;SDS011;15074;50.940;5.282;2023-06-14T00:50:34;8.52;;;7.82;;
27666;SDS011;15074;50.940;5.282;2023-06-14T00:53:02;8.57;;;7.78;;
27666;SDS011;15074;50.940;5.282;2023-06-14T00:55:28;7.93;;;7.20;;
27666;SDS011;15074;50.940;5.282;2023-06-14T00:57:54;9.30;;;7.70;;
27666;SDS011;15074;50.940;5.282;2023-06-14T01:00:21;9.20;;;8.10;;
27666;SDS011;15074;50.940;5.282;2023-06-14T01:02:47;8.05;;;7.45;;
27666;SDS011;15074;50.940;5.282;2023-06-14T01:05:14;7.88;;;7.28;;
27666;SDS011;15074;50.940;5.282;2023-06-14T01:11:06;8.65;;;7.75;;
27666;SDS011;15074;50.940;5.282;2023-06-14T01:13:40;10.35;;;8.65;;
27666;SDS011;15074;50.940;5.282;2023-06-14T01:16:08;8.48;;;7.53;;
27666;SDS011;15074;50.940;5.282;2023-06-14T01:18:35;8.77;;;8.02;;
27666;SDS011;15074;50.940;5.282;2023-06-14T01:21:01;8.80;;;8.20;;
27666;SDS011;15074;50.940;5.282;2023-06-14T01:23:30;9.05;;;8.15;;
27666;SDS011;15074;50.940;5.282;2023-06-14T01:26:00;9.18;;;8.43;;
27666;SDS011;15074;50.940;5.282;2023-06-14T01:28:28;8.93;;;8.23;;
27666;SDS011;15074;50.940;5.282;2023-06-14T01:30:59;8.80;;;8.10;;
27666;SDS011;15074;50.940;5.282;2023-06-14T01:33:29;9.20;;;8.38;;
27666;SDS011;15074;50.940;5.282;2023-06-14T01:35:56;9.55;;;8.35;;
27666;SDS011;15074;50.940;5.282;2023-06-14T01:38:23;8.82;;;8.13;;
27666;SDS011;15074;50.940;5.282;2023-06-14T01:40:50;9.07;;;8.35;;
27666;SDS011;15074;50.940;5.282;2023-06-14T01:43:19;9.02;;;8.32;;
27666;SDS011;15074;50.940;5.282;2023-06-14T01:45:46;9.02;;;8.23;;
27666;SDS011;15074;50.940;5.282;2023-06-14T01:48:16;8.65;;;7.97;;
27666;SDS011;15074;50.940;5.282;2023-06-14T01:50:42;9.57;;;7.93;;
27666;SDS011;15074;50.940;5.282;2023-06-14T01:53:08;9.63;;;8.63;;
27666;SDS011;15074;50.940;5.282;2023-06-14T01:55:35;10.23;;;8.98;;
27666;SDS011;15074;50.940;5.282;2023-06-14T01:58:02;9.38;;;8.48;;
27666;SDS011;15074;50.940;5.282;2023-06-14T02:00:28;9.45;;;8.50;;
27666;SDS011;15074;50.940;5.282;2023-06-14T02:02:54;9.73;;;8.93;;
27666;SDS011;15074;50.940;5.282;2023-06-14T02:05:20;9.48;;;8.60;;
27666;SDS011;15074;50.940;5.282;2023-06-14T02:07:46;9.68;;;8.68;;
27666;SDS011;15074;50.940;5.282;2023-06-14T02:10:12;10.35;;;9.02;;
27666;SDS011;15074;50.940;5.282;2023-06-14T02:12:39;9.17;;;8.47;;
27666;SDS011;15074;50.940;5.282;2023-06-14T02:15:05;10.02;;;9.13;;
27666;SDS011;15074;50.940;5.282;2023-06-14T02:17:32;9.80;;;9.00;;
27666;SDS011;15074;50.940;5.282;2023-06-14T02:19:58;10.07;;;9.18;;
27666;SDS011;15074;50.940;5.282;2023-06-14T02:22:23;9.90;;;8.90;;
27666;SDS011;15074;50.940;5.282;2023-06-14T02:24:49;9.88;;;8.77;;
27666;SDS011;15074;50.940;5.282;2023-06-14T02:27:15;9.95;;;9.13;;
27666;SDS011;15074;50.940;5.282;2023-06-14T02:29:41;11.18;;;9.27;;
27666;SDS011;15074;50.940;5.282;2023-06-14T02:32:07;9.93;;;9.05;;
27666;SDS011;15074;50.940;5.282;2023-06-14T02:34:33;10.02;;;9.05;;
27666;SDS011;15074;50.940;5.282;2023-06-14T02:37:00;10.30;;;9.43;;
27666;SDS011;15074;50.940;5.282;2023-06-14T02:41:53;10.88;;;9.95;;
27666;SDS011;15074;50.940;5.282;2023-06-14T02:44:19;9.27;;;8.57;;
27666;SDS011;15074;50.940;5.282;2023-06-14T02:46:48;11.20;;;10.30;;
27666;SDS011;15074;50.940;5.282;2023-06-14T02:49:14;11.13;;;9.88;;
27666;SDS011;15074;50.940;5.282;2023-06-14T02:51:40;10.65;;;9.70;;
27666;SDS011;15074;50.940;5.282;2023-06-14T02:54:05;10.52;;;9.63;;
27666;SDS011;15074;50.940;5.282;2023-06-14T02:56:31;9.98;;;9.18;;
27666;SDS011;15074;50.940;5.282;2023-06-14T02:58:57;13.00;;;9.60;;
27666;SDS011;15074;50.940;5.282;2023-06-14T03:01:25;9.88;;;9.00;;
27666;SDS011;15074;50.940;5.282;2023-06-14T03:03:59;10.90;;;9.98;;
27666;SDS011;15074;50.940;5.282;2023-06-14T03:06:28;10.93;;;9.93;;
27666;SDS011;15074;50.940;5.282;2023-06-14T03:08:57;10.40;;;9.40;;
27666;SDS011;15074;50.940;5.282;2023-06-14T03:11:28;10.90;;;9.98;;
27666;SDS011;15074;50.940;5.282;2023-06-14T03:13:53;11.35;;;10.45;;
27666;SDS011;15074;50.940;5.282;2023-06-14T03:16:20;10.65;;;9.73;;
27666;SDS011;15074;50.940;5.282;2023-06-14T03:18:50;10.68;;;9.88;;
27666;SDS011;15074;50.940;5.282;2023-06-14T03:21:17;10.60;;;9.68;;
27666;SDS011;15074;50.940;5.282;2023-06-14T03:23:46;10.68;;;9.68;;
27666;SDS011;15074;50.940;5.282;2023-06-14T03:26:12;14.93;;;10.40;;
27666;SDS011;15074;50.940;5.282;2023-06-14T03:28:40;11.65;;;10.35;;
27666;SDS011;15074;50.940;5.282;2023-06-14T03:31:06;10.98;;;9.93;;
27666;SDS011;15074;50.940;5.282;2023-06-14T03:33:33;12.10;;;10.77;;
27666;SDS011;15074;50.940;5.282;2023-06-14T03:35:59;13.05;;;10.43;;
27666;SDS011;15074;50.940;5.282;2023-06-14T03:38:25;11.27;;;10.35;;
27666;SDS011;15074;50.940;5.282;2023-06-14T03:40:50;14.63;;;10.80;;
27666;SDS011;15074;50.940;5.282;2023-06-14T03:43:16;11.40;;;10.45;;
27666;SDS011;15074;50.940;5.282;2023-06-14T03:45:42;10.80;;;9.90;;
27666;SDS011;15074;50.940;5.282;2023-06-14T03:48:08;10.73;;;9.93;;
27666;SDS011;15074;50.940;5.282;2023-06-14T03:50:34;11.25;;;10.35;;
27666;SDS011;15074;50.940;5.282;2023-06-14T03:53:03;10.82;;;10.02;;
27666;SDS011;15074;50.940;5.282;2023-06-14T03:55:29;10.70;;;9.70;;
27666;SDS011;15074;50.940;5.282;2023-06-14T03:57:56;10.48;;;9.48;;
27666;SDS011;15074;50.940;5.282;2023-06-14T04:00:22;11.40;;;10.30;;
27666;SDS011;15074;50.940;5.282;2023-06-14T04:02:48;11.02;;;9.95;;
27666;SDS011;15074;50.940;5.282;2023-06-14T04:05:14;10.93;;;9.80;;
27666;SDS011;15074;50.940;5.282;2023-06-14T04:07:41;14.57;;;10.40;;
27666;SDS011;15074;50.940;5.282;2023-06-14T04:10:10;11.18;;;10.07;;
27666;SDS011;15074;50.940;5.282;2023-06-14T04:12:36;10.32;;;9.32;;
27666;SDS011;15074;50.940;5.282;2023-06-14T04:15:02;11.15;;;10.15;;
27666;SDS011;15074;50.940;5.282;2023-06-14T04:17:28;13.38;;;9.90;;
27666;SDS011;15074;50.940;5.282;2023-06-14T04:19:54;10.80;;;9.95;;
27666;SDS011;15074;50.940;5.282;2023-06-14T04:22:20;10.50;;;9.50;;
27666;SDS011;15074;50.940;5.282;2023-06-14T04:24:46;11.07;;;10.25;;
27666;SDS011;15074;50.940;5.282;2023-06-14T04:27:11;10.48;;;9.38;;
27666;SDS011;15074;50.940;5.282;2023-06-14T04:29:39;10.30;;;9.45;;
27666;SDS011;15074;50.940;5.282;2023-06-14T04:32:08;10.95;;;9.85;;
27666;SDS011;15074;50.940;5.282;2023-06-14T04:34:35;10.27;;;9.38;;
27666;SDS011;15074;50.940;5.282;2023-06-14T04:37:02;10.05;;;9.25;;
27666;SDS011;15074;50.940;5.282;2023-06-14T04:39:28;10.30;;;9.45;;
27666;SDS011;15074;50.940;5.282;2023-06-14T04:41:54;13.10;;;8.90;;
27666;SDS011;15074;50.940;5.282;2023-06-14T04:44:22;10.18;;;9.23;;
27666;SDS011;15074;50.940;5.282;2023-06-14T04:46:49;9.85;;;9.05;;
27666;SDS011;15074;50.940;5.282;2023-06-14T04:49:16;10.23;;;9.43;;
27666;SDS011;15074;50.940;5.282;2023-06-14T04:51:42;9.68;;;8.85;;
27666;SDS011;15074;50.940;5.282;2023-06-14T04:54:10;9.88;;;9.07;;
27666;SDS011;15074;50.940;5.282;2023-06-14T04:56:42;9.63;;;8.90;;
27666;SDS011;15074;50.940;5.282;2023-06-14T04:59:08;10.88;;;8.88;;
27666;SDS011;15074;50.940;5.282;2023-06-14T05:01:36;10.13;;;9.23;;
27666;SDS011;15074;50.940;5.282;2023-06-14T05:04:02;17.00;;;9.30;;
27666;SDS011;15074;50.940;5.282;2023-06-14T05:06:29;9.35;;;8.65;;
27666;SDS011;15074;50.940;5.282;2023-06-14T05:08:55;9.40;;;8.70;;
27666;SDS011;15074;50.940;5.282;2023-06-14T05:11:21;8.88;;;8.18;;
27666;SDS011;15074;50.940;5.282;2023-06-14T05:13:49;9.60;;;8.68;;
27666;SDS011;15074;50.940;5.282;2023-06-14T05:16:15;9.70;;;8.88;;
27666;SDS011;15074;50.940;5.282;2023-06-14T05:18:44;9.35;;;8.55;;
27666;SDS011;15074;50.940;5.282;2023-06-14T05:21:10;9.88;;;8.95;;
27666;SDS011;15074;50.940;5.282;2023-06-14T05:23:36;9.40;;;8.32;;
27666;SDS011;15074;50.940;5.282;2023-06-14T05:26:02;9.80;;;8.90;;
27666;SDS011;15074;50.940;5.282;2023-06-14T05:28:29;11.40;;;8.13;;
27666;SDS011;15074;50.940;5.282;2023-06-14T05:30:55;13.32;;;8.45;;
27666;SDS011;15074;50.940;5.282;2023-06-14T05:33:21;8.82;;;8.02;;
27666;SDS011;15074;50.940;5.282;2023-06-14T05:35:47;9.13;;;8.43;;
27666;SDS011;15074;50.940;5.282;2023-06-14T05:38:12;9.65;;;8.07;;
27666;SDS011;15074;50.940;5.282;2023-06-14T05:40:38;12.90;;;8.00;;
27666;SDS011;15074;50.940;5.282;2023-06-14T05:43:04;8.57;;;7.78;;
27666;SDS011;15074;50.940;5.282;2023-06-14T05:45:29;9.13;;;7.55;;
27666;SDS011;15074;50.940;5.282;2023-06-14T05:47:55;8.25;;;7.57;;
27666;SDS011;15074;50.940;5.282;2023-06-14T05:50:21;8.32;;;7.50;;
27666;SDS011;15074;50.940;5.282;2023-06-14T05:52:48;8.20;;;7.60;;
27666;SDS011;15074;50.940;5.282;2023-06-14T05:55:13;12.13;;;7.80;;
27666;SDS011;15074;50.940;5.282;2023-06-14T05:57:41;9.63;;;7.68;;
27666;SDS011;15074;50.940;5.282;2023-06-14T06:00:08;7.28;;;6.68;;
27666;SDS011;15074;50.940;5.282;2023-06-14T06:02:39;11.15;;;7.47;;
27666;SDS011;15074;50.940;5.282;2023-06-14T06:05:07;12.55;;;7.22;;
27666;SDS011;15074;50.940;5.282;2023-06-14T06:07:52;7.65;;;6.95;;
27666;SDS011;15074;50.940;5.282;2023-06-14T06:10:17;7.70;;;7.00;;
27666;SDS011;15074;50.940;5.282;2023-06-14T06:12:43;7.38;;;6.70;;
27666;SDS011;15074;50.940;5.282;2023-06-14T06:15:09;7.05;;;6.45;;
27666;SDS011;15074;50.940;5.282;2023-06-14T06:17:37;13.88;;;6.90;;
27666;SDS011;15074;50.940;5.282;2023-06-14T06:20:03;11.40;;;6.55;;
27666;SDS011;15074;50.940;5.282;2023-06-14T06:22:31;7.88;;;6.53;;
27666;SDS011;15074;50.940;5.282;2023-06-14T06:24:57;7.47;;;6.80;;
27666;SDS011;15074;50.940;5.282;2023-06-14T06:27:23;7.07;;;6.20;;
27666;SDS011;15074;50.940;5.282;2023-06-14T06:29:48;11.60;;;6.63;;
27666;SDS011;15074;50.940;5.282;2023-06-14T06:32:15;8.63;;;7.15;;
27666;SDS011;15074;50.940;5.282;2023-06-14T06:34:41;7.90;;;6.32;;
27666;SDS011;15074;50.940;5.282;2023-06-14T06:37:06;9.57;;;6.63;;
27666;SDS011;15074;50.940;5.282;2023-06-14T06:39:32;6.47;;;5.88;;
27666;SDS011;15074;50.940;5.282;2023-06-14T06:41:58;13.05;;;6.53;;
27666;SDS011;15074;50.940;5.282;2023-06-14T06:44:23;8.50;;;5.47;;
27666;SDS011;15074;50.940;5.282;2023-06-14T06:46:49;9.02;;;6.05;;
27666;SDS011;15074;50.940;5.282;2023-06-14T06:49:15;6.22;;;5.72;;
27666;SDS011;15074;50.940;5.282;2023-06-14T06:51:41;8.25;;;6.13;;
27666;SDS011;15074;50.940;5.282;2023-06-14T06:54:08;6.53;;;5.95;;
27666;SDS011;15074;50.940;5.282;2023-06-14T06:56:34;6.78;;;5.97;;
27666;SDS011;15074;50.940;5.282;2023-06-14T06:59:00;6.05;;;5.55;;
27666;SDS011;15074;50.940;5.282;2023-06-14T07:01:26;5.82;;;5.32;;
27666;SDS011;15074;50.940;5.282;2023-06-14T07:03:53;11.75;;;5.80;;
27666;SDS011;15074;50.940;5.282;2023-06-14T07:06:20;8.15;;;5.72;;
27666;SDS011;15074;50.940;5.282;2023-06-14T07:08:45;7.10;;;5.85;;
27666;SDS011;15074;50.940;5.282;2023-06-14T07:11:13;6.50;;;5.85;;
27666;SDS011;15074;50.940;5.282;2023-06-14T07:13:39;5.95;;;5.50;;
27666;SDS011;15074;50.940;5.282;2023-06-14T07:16:05;7.43;;;5.75;;
27666;SDS011;15074;50.940;5.282;2023-06-14T07:18:31;6.22;;;5.80;;
27666;SDS011;15074;50.940;5.282;2023-06-14T07:20:57;7.85;;;5.35;;
27666;SDS011;15074;50.940;5.282;2023-06-14T07:23:23;5.88;;;5.40;;
27666;SDS011;15074;50.940;5.282;2023-06-14T07:25:48;10.73;;;5.25;;
27666;SDS011;15074;50.940;5.282;2023-06-14T07:28:16;7.28;;;5.10;;
27666;SDS011;15074;50.940;5.282;2023-06-14T07:30:43;7.00;;;5.30;;
27666;SDS011;15074;50.940;5.282;2023-06-14T07:33:08;5.95;;;4.65;;
27666;SDS011;15074;50.940;5.282;2023-06-14T07:35:35;8.13;;;5.40;;
27666;SDS011;15074;50.940;5.282;2023-06-14T07:38:01;5.32;;;4.57;;
27666;SDS011;15074;50.940;5.282;2023-06-14T07:40:26;7.47;;;5.10;;
27666;SDS011;15074;50.940;5.282;2023-06-14T07:42:52;5.53;;;4.93;;
27666;SDS011;15074;50.940;5.282;2023-06-14T07:45:19;8.48;;;5.97;;
27666;SDS011;15074;50.940;5.282;2023-06-14T07:47:45;5.30;;;4.90;;
27666;SDS011;15074;50.940;5.282;2023-06-14T07:50:11;5.57;;;4.95;;
27666;SDS011;15074;50.940;5.282;2023-06-14T07:52:38;5.25;;;4.85;;
27666;SDS011;15074;50.940;5.282;2023-06-14T07:55:04;6.38;;;5.55;;
27666;SDS011;15074;50.940;5.282;2023-06-14T07:57:30;5.75;;;5.15;;
27666;SDS011;15074;50.940;5.282;2023-06-14T07:59:56;5.05;;;4.38;;
27666;SDS011;15074;50.940;5.282;2023-06-14T08:02:22;4.93;;;4.53;;
27666;SDS011;15074;50.940;5.282;2023-06-14T08:04:47;4.97;;;4.57;;
27666;SDS011;15074;50.940;5.282;2023-06-14T08:07:13;4.38;;;4.00;;
27666;SDS011;15074;50.940;5.282;2023-06-14T08:09:39;6.38;;;4.28;;
27666;SDS011;15074;50.940;5.282;2023-06-14T08:12:05;4.97;;;4.47;;
27666;SDS011;15074;50.940;5.282;2023-06-14T08:14:35;4.82;;;4.38;;
27666;SDS011;15074;50.940;5.282;2023-06-14T08:17:01;4.32;;;3.92;;
27666;SDS011;15074;50.940;5.282;2023-06-14T08:19:27;4.65;;;4.20;;
27666;SDS011;15074;50.940;5.282;2023-06-14T08:21:53;8.20;;;4.43;;
27666;SDS011;15074;50.940;5.282;2023-06-14T08:24:23;7.65;;;4.15;;
27666;SDS011;15074;50.940;5.282;2023-06-14T08:26:54;4.40;;;4.00;;
27666;SDS011;15074;50.940;5.282;2023-06-14T08:29:21;4.40;;;4.10;;
27666;SDS011;15074;50.940;5.282;2023-06-14T08:31:47;3.88;;;3.42;;
27666;SDS011;15074;50.940;5.282;2023-06-14T08:34:13;8.07;;;4.22;;
27666;SDS011;15074;50.940;5.282;2023-06-14T08:36:38;5.78;;;4.10;;
27666;SDS011;15074;50.940;5.282;2023-06-14T08:39:04;4.53;;;3.65;;
27666;SDS011;15074;50.940;5.282;2023-06-14T08:41:30;5.63;;;3.88;;
27666;SDS011;15074;50.940;5.282;2023-06-14T08:43:57;4.45;;;4.05;;
27666;SDS011;15074;50.940;5.282;2023-06-14T08:46:25;5.30;;;3.72;;
27666;SDS011;15074;50.940;5.282;2023-06-14T08:48:52;5.47;;;4.07;;
27666;SDS011;15074;50.940;5.282;2023-06-14T08:51:23;9.18;;;4.30;;
27666;SDS011;15074;50.940;5.282;2023-06-14T08:53:52;4.68;;;4.22;;
27666;SDS011;15074;50.940;5.282;2023-06-14T08:56:24;4.13;;;3.70;;
27666;SDS011;15074;50.940;5.282;2023-06-14T08:58:52;6.50;;;3.50;;
27666;SDS011;15074;50.940;5.282;2023-06-14T09:01:19;5.90;;;3.80;;
27666;SDS011;15074;50.940;5.282;2023-06-14T09:03:47;9.38;;;3.88;;
27666;SDS011;15074;50.940;5.282;2023-06-14T09:06:13;5.20;;;3.53;;
27666;SDS011;15074;50.940;5.282;2023-06-14T09:08:43;6.43;;;3.47;;
27666;SDS011;15074;50.940;5.282;2023-06-14T09:11:13;4.60;;;3.50;;
27666;SDS011;15074;50.940;5.282;2023-06-14T09:13:43;4.45;;;2.90;;
27666;SDS011;15074;50.940;5.282;2023-06-14T09:16:15;5.93;;;2.90;;
27666;SDS011;15074;50.940;5.282;2023-06-14T09:18:42;5.53;;;2.95;;
27666;SDS011;15074;50.940;5.282;2023-06-14T09:21:10;3.67;;;2.70;;
27666;SDS011;15074;50.940;5.282;2023-06-14T09:23:41;5.88;;;3.33;;
27666;SDS011;15074;50.940;5.282;2023-06-14T09:26:08;4.63;;;3.30;;
27666;SDS011;15074;50.940;5.282;2023-06-14T09:28:35;11.68;;;3.05;;
27666;SDS011;15074;50.940;5.282;2023-06-14T09:31:01;6.65;;;3.00;;
27666;SDS011;15074;50.940;5.282;2023-06-14T09:33:27;5.70;;;2.60;;
27666;SDS011;15074;50.940;5.282;2023-06-14T09:35:54;3.53;;;2.47;;
27666;SDS011;15074;50.940;5.282;2023-06-14T09:38:24;6.50;;;2.88;;
27666;SDS011;15074;50.940;5.282;2023-06-14T09:40:50;9.30;;;2.80;;
27666;SDS011;15074;50.940;5.282;2023-06-14T09:43:16;5.03;;;2.53;;
27666;SDS011;15074;50.940;5.282;2023-06-14T09:45:43;5.95;;;2.55;;
27666;SDS011;15074;50.940;5.282;2023-06-14T09:48:10;4.60;;;2.92;;
27666;SDS011;15074;50.940;5.282;2023-06-14T09:50:37;3.28;;;2.25;;
27666;SDS011;15074;50.940;5.282;2023-06-14T09:53:08;3.53;;;2.10;;
27666;SDS011;15074;50.940;5.282;2023-06-14T09:55:37;4.10;;;2.45;;
27666;SDS011;15074;50.940;5.282;2023-06-14T09:58:06;4.05;;;2.42;;
27666;SDS011;15074;50.940;5.282;2023-06-14T10:00:33;3.72;;;2.17;;
27666;SDS011;15074;50.940;5.282;2023-06-14T10:03:08;8.50;;;2.55;;
27666;SDS011;15074;50.940;5.282;2023-06-14T10:05:44;13.88;;;2.70;;
27666;SDS011;15074;50.940;5.282;2023-06-14T10:08:15;4.65;;;2.63;;
27666;SDS011;15074;50.940;5.282;2023-06-14T10:10:43;4.40;;;2.45;;
27666;SDS011;15074;50.940;5.282;2023-06-14T10:13:09;4.30;;;2.05;;
27666;SDS011;15074;50.940;5.282;2023-06-14T10:15:42;8.02;;;2.30;;
27666;SDS011;15074;50.940;5.282;2023-06-14T10:21:16;6.25;;;2.38;;
27666;SDS011;15074;50.940;5.282;2023-06-14T10:23:53;3.70;;;2.03;;
27666;SDS011;15074;50.940;5.282;2023-06-14T10:26:22;2.85;;;2.45;;
27666;SDS011;15074;50.940;5.282;2023-06-14T10:28:59;3.90;;;2.10;;
27666;SDS011;15074;50.940;5.282;2023-06-14T10:31:46;2.75;;;1.67;;
27666;SDS011;15074;50.940;5.282;2023-06-14T10:34:20;4.60;;;2.38;;
27666;SDS011;15074;50.940;5.282;2023-06-14T10:39:37;4.60;;;2.00;;
27666;SDS011;15074;50.940;5.282;2023-06-14T10:42:06;3.30;;;1.98;;
27666;SDS011;15074;50.940;5.282;2023-06-14T10:46:59;3.35;;;1.88;;
27666;SDS011;15074;50.940;5.282;2023-06-14T10:52:16;3.70;;;2.03;;
27666;SDS011;15074;50.940;5.282;2023-06-14T10:55:02;2.72;;;1.95;;
27666;SDS011;15074;50.940;5.282;2023-06-14T10:57:55;3.28;;;2.00;;
27666;SDS011;15074;50.940;5.282;2023-06-14T11:00:23;3.87;;;2.00;;
27666;SDS011;15074;50.940;5.282;2023-06-14T11:02:53;13.68;;;2.50;;
27666;SDS011;15074;50.940;5.282;2023-06-14T11:06:16;2.53;;;1.30;;
27666;SDS011;15074;50.940;5.282;2023-06-14T11:13:56;157.52;;;10.20;;
27666;SDS011;15074;50.940;5.282;2023-06-14T11:16:22;2.03;;;1.33;;
27666;SDS011;15074;50.940;5.282;2023-06-14T11:18:53;1.52;;;1.27;;
27666;SDS011;15074;50.940;5.282;2023-06-14T11:21:19;2.10;;;1.33;;
27666;SDS011;15074;50.940;5.282;2023-06-14T11:23:49;1.40;;;1.13;;
27666;SDS011;15074;50.940;5.282;2023-06-14T11:26:15;3.50;;;1.20;;
27666;SDS011;15074;50.940;5.282;2023-06-14T11:28:48;1.35;;;1.00;;
27666;SDS011;15074;50.940;5.282;2023-06-14T11:31:21;1.73;;;1.10;;
27666;SDS011;15074;50.940;5.282;2023-06-14T11:33:49;1.17;;;1.00;;
27666;SDS011;15074;50.940;5.282;2023-06-14T11:36:15;4.57;;;1.10;;
27666;SDS011;15074;50.940;5.282;2023-06-14T11:38:41;3.05;;;1.48;;
27666;SDS011;15074;50.940;5.282;2023-06-14T11:41:07;3.63;;;0.90;;
27666;SDS011;15074;50.940;5.282;2023-06-14T11:43:33;2.33;;;0.90;;
27666;SDS011;15074;50.940;5.282;2023-06-14T11:46:00;1.08;;;0.98;;
27666;SDS011;15074;50.940;5.282;2023-06-14T11:48:40;2.10;;;0.80;;
27666;SDS011;15074;50.940;5.282;2023-06-14T11:51:07;1.85;;;0.82;;
27666;SDS011;15074;50.940;5.282;2023-06-14T11:53:33;4.82;;;1.20;;
27666;SDS011;15074;50.940;5.282;2023-06-14T11:55:59;0.93;;;0.90;;
27666;SDS011;15074;50.940;5.282;2023-06-14T11:58:26;15.07;;;2.30;;
27666;SDS011;15074;50.940;5.282;2023-06-14T12:00:54;4.20;;;1.00;;
27666;SDS011;15074;50.940;5.282;2023-06-14T12:03:23;0.87;;;0.70;;
27666;SDS011;15074;50.940;5.282;2023-06-14T12:06:07;1.02;;;0.80;;
27666;SDS011;15074;50.940;5.282;2023-06-14T12:08:36;1.80;;;1.00;;
27666;SDS011;15074;50.940;5.282;2023-06-14T12:11:07;1.40;;;0.80;;
27666;SDS011;15074;50.940;5.282;2023-06-14T12:13:39;2.33;;;0.80;;
27666;SDS011;15074;50.940;5.282;2023-06-14T12:18:35;2.25;;;0.85;;
27666;SDS011;15074;50.940;5.282;2023-06-14T12:21:08;1.83;;;0.90;;
27666;SDS011;15074;50.940;5.282;2023-06-14T12:23:47;1.77;;;0.90;;
27666;SDS011;15074;50.940;5.282;2023-06-14T12:26:15;1.27;;;0.90;;
27666;SDS011;15074;50.940;5.282;2023-06-14T12:28:42;1.27;;;0.80;;
27666;SDS011;15074;50.940;5.282;2023-06-14T12:31:09;4.00;;;1.10;;
27666;SDS011;15074;50.940;5.282;2023-06-14T12:33:36;2.35;;;1.25;;
27666;SDS011;15074;50.940;5.282;2023-06-14T12:36:06;1.88;;;1.10;;
27666;SDS011;15074;50.940;5.282;2023-06-14T12:38:33;1.42;;;1.10;;
27666;SDS011;15074;50.940;5.282;2023-06-14T12:40:59;3.25;;;0.88;;
27666;SDS011;15074;50.940;5.282;2023-06-14T12:43:25;3.50;;;1.02;;
27666;SDS011;15074;50.940;5.282;2023-06-14T12:45:51;4.78;;;1.40;;
27666;SDS011;15074;50.940;5.282;2023-06-14T12:48:17;4.00;;;1.10;;
27666;SDS011;15074;50.940;5.282;2023-06-14T12:50:43;3.17;;;1.15;;
27666;SDS011;15074;50.940;5.282;2023-06-14T12:53:09;2.65;;;0.98;;
27666;SDS011;15074;50.940;5.282;2023-06-14T12:55:35;3.77;;;1.10;;
27666;SDS011;15074;50.940;5.282;2023-06-14T12:58:01;3.92;;;1.13;;
27666;SDS011;15074;50.940;5.282;2023-06-14T13:00:27;2.85;;;1.00;;
27666;SDS011;15074;50.940;5.282;2023-06-14T13:02:54;2.47;;;1.00;;
27666;SDS011;15074;50.940;5.282;2023-06-14T13:05:20;6.68;;;1.10;;
27666;SDS011;15074;50.940;5.282;2023-06-14T13:07:46;3.35;;;0.98;;
27666;SDS011;15074;50.940;5.282;2023-06-14T13:10:12;1.55;;;1.10;;
27666;SDS011;15074;50.940;5.282;2023-06-14T13:12:37;2.47;;;1.08;;
27666;SDS011;15074;50.940;5.282;2023-06-14T13:15:03;1.27;;;0.88;;
27666;SDS011;15074;50.940;5.282;2023-06-14T13:17:29;1.27;;;1.00;;
27666;SDS011;15074;50.940;5.282;2023-06-14T13:19:58;3.03;;;1.00;;
27666;SDS011;15074;50.940;5.282;2023-06-14T13:22:24;2.30;;;1.00;;
27666;SDS011;15074;50.940;5.282;2023-06-14T13:24:50;1.27;;;1.00;;
27666;SDS011;15074;50.940;5.282;2023-06-14T13:27:16;2.38;;;0.88;;
27666;SDS011;15074;50.940;5.282;2023-06-14T13:29:42;1.75;;;1.00;;
27666;SDS011;15074;50.940;5.282;2023-06-14T13:32:08;3.40;;;0.90;;
27666;SDS011;15074;50.940;5.282;2023-06-14T13:34:34;2.03;;;0.80;;
27666;SDS011;15074;50.940;5.282;2023-06-14T13:36:59;6.03;;;1.30;;
27666;SDS011;15074;50.940;5.282;2023-06-14T13:39:25;3.60;;;1.20;;
27666;SDS011;15074;50.940;5.282;2023-06-14T13:41:51;34.47;;;2.05;;
27666;SDS011;15074;50.940;5.282;2023-06-14T13:44:16;18.70;;;2.05;;
27666;SDS011;15074;50.940;5.282;2023-06-14T13:46:46;2.63;;;0.98;;
27666;SDS011;15074;50.940;5.282;2023-06-14T13:49:11;2.90;;;1.05;;
27666;SDS011;15074;50.940;5.282;2023-06-14T13:51:37;2.10;;;1.00;;
27666;SDS011;15074;50.940;5.282;2023-06-14T13:54:03;16.85;;;1.13;;
27666;SDS011;15074;50.940;5.282;2023-06-14T13:56:29;2.40;;;0.93;;
27666;SDS011;15074;50.940;5.282;2023-06-14T13:58:55;6.03;;;1.20;;
27666;SDS011;15074;50.940;5.282;2023-06-14T14:01:21;2.00;;;1.00;;
27666;SDS011;15074;50.940;5.282;2023-06-14T14:03:47;2.40;;;0.90;;
27666;SDS011;15074;50.940;5.282;2023-06-14T14:06:14;2.08;;;1.08;;
27666;SDS011;15074;50.940;5.282;2023-06-14T14:08:42;1.20;;;0.73;;
27666;SDS011;15074;50.940;5.282;2023-06-14T14:11:08;1.70;;;0.85;;
27666;SDS011;15074;50.940;5.282;2023-06-14T14:13:34;2.75;;;1.00;;
27666;SDS011;15074;50.940;5.282;2023-06-14T14:16:04;1.35;;;0.77;;
27666;SDS011;15074;50.940;5.282;2023-06-14T14:18:31;2.22;;;1.00;;
27666;SDS011;15074;50.940;5.282;2023-06-14T14:20:57;2.67;;;1.07;;
27666;SDS011;15074;50.940;5.282;2023-06-14T14:23:23;1.52;;;0.90;;
27666;SDS011;15074;50.940;5.282;2023-06-14T14:25:49;2.55;;;0.90;;
27666;SDS011;15074;50.940;5.282;2023-06-14T14:28:16;11.68;;;1.58;;
27666;SDS011;15074;50.940;5.282;2023-06-14T14:30:44;1.85;;;0.90;;
27666;SDS011;15074;50.940;5.282;2023-06-14T14:33:10;1.90;;;0.90;;
27666;SDS011;15074;50.940;5.282;2023-06-14T14:35:41;1.67;;;1.00;;
27666;SDS011;15074;50.940;5.282;2023-06-14T14:38:07;1.92;;;1.15;;
27666;SDS011;15074;50.940;5.282;2023-06-14T14:40:33;1.30;;;0.90;;
27666;SDS011;15074;50.940;5.282;2023-06-14T14:42:59;4.00;;;1.20;;
27666;SDS011;15074;50.940;5.282;2023-06-14T14:45:25;3.35;;;1.00;;
27666;SDS011;15074;50.940;5.282;2023-06-14T14:47:51;2.67;;;0.90;;
27666;SDS011;15074;50.940;5.282;2023-06-14T14:50:17;1.30;;;0.90;;
27666;SDS011;15074;50.940;5.282;2023-06-14T14:52:43;1.95;;;1.00;;
27666;SDS011;15074;50.940;5.282;2023-06-14T14:55:09;1.58;;;0.93;;
27666;SDS011;15074;50.940;5.282;2023-06-14T14:57:34;4.38;;;0.90;;
27666;SDS011;15074;50.940;5.282;2023-06-14T15:00:02;3.83;;;0.90;;
27666;SDS011;15074;50.940;5.282;2023-06-14T15:02:31;5.00;;;0.90;;
27666;SDS011;15074;50.940;5.282;2023-06-14T15:04:56;3.85;;;0.98;;
27666;SDS011;15074;50.940;5.282;2023-06-14T15:07:26;2.75;;;0.75;;
27666;SDS011;15074;50.940;5.282;2023-06-14T15:09:53;2.83;;;0.90;;